createdAt,value
2022-11-12T00:03:28.910Z,13.16
2022-11-12T00:10:33.740Z,13.43
2022-11-12T00:17:40.551Z,13.38
2022-11-12T00:24:44.731Z,13.48
2022-11-12T00:31:48.624Z,13.22
2022-11-12T00:38:55.330Z,13.44
2022-11-12T00:45:59.304Z,13.45
2022-11-12T00:53:03.479Z,13.56
2022-11-12T01:00:17.103Z,13.52
2022-11-12T01:07:21.159Z,13.51
2022-11-12T01:14:25.361Z,13.39
2022-11-12T01:21:34.349Z,13.29
2022-11-12T01:28:39.012Z,13.28
2022-11-12T01:35:42.872Z,13.28
2022-11-12T01:42:55.488Z,13.18
2022-11-12T01:50:04.155Z,13.32
2022-11-12T01:57:08.671Z,13.42
2022-11-12T02:04:15.389Z,13.26
2022-11-12T02:11:20.840Z,13.56
2022-11-12T02:18:25.211Z,13.35
2022-11-12T02:25:32.476Z,12.85
2022-11-12T02:32:36.557Z,13.42
2022-11-12T02:39:40.650Z,13.11
2022-11-12T02:46:47.384Z,13.38
2022-11-12T02:53:51.451Z,13.39
2022-11-12T03:00:56.434Z,13.26
2022-11-12T03:08:05.743Z,13.18
2022-11-12T03:15:11.142Z,13.15
2022-11-12T03:22:15.291Z,13.13
2022-11-12T03:29:22.125Z,13.06
2022-11-12T03:36:25.923Z,13.09
2022-11-12T03:43:29.731Z,13.12
2022-11-12T04:04:44.784Z,12.89
2022-11-12T04:11:48.900Z,12.98
2022-11-12T04:19:08.537Z,13.02
2022-11-12T04:26:27.440Z,13.13
2022-11-12T04:33:31.332Z,13.01
2022-11-12T04:40:48.437Z,12.97
2022-11-12T04:47:55.454Z,12.83
2022-11-12T04:55:00.463Z,12.68
2022-11-12T05:01:52.254Z,12.54
2022-11-12T05:08:59.049Z,12.40
2022-11-12T05:16:02.912Z,12.30
2022-11-12T05:23:07.850Z,12.06
2022-11-12T05:30:16.708Z,11.87
2022-11-12T05:37:21.085Z,11.74
2022-11-12T05:44:25.009Z,11.73
2022-11-12T05:51:31.535Z,11.67
2022-11-12T05:58:35.545Z,11.61
2022-11-12T06:05:39.880Z,11.48
2022-11-12T06:12:46.631Z,11.42
2022-11-12T06:19:50.658Z,11.57
2022-11-12T06:26:54.563Z,11.69
2022-11-12T06:34:01.643Z,11.84
2022-11-12T06:41:06.873Z,11.92
2022-11-12T06:48:10.752Z,11.95
2022-11-12T06:55:17.346Z,12.00
2022-11-12T07:02:21.420Z,12.08
2022-11-12T07:09:25.510Z,12.04
2022-11-12T07:16:31.947Z,11.97
2022-11-12T07:23:38.832Z,12.19
2022-11-12T07:30:42.813Z,12.27
2022-11-12T07:37:49.392Z,12.14
2022-11-12T07:44:53.835Z,12.15
2022-11-12T07:51:58.017Z,12.22
2022-11-12T07:59:04.647Z,12.19
2022-11-12T08:06:09.773Z,12.32
2022-11-12T08:13:13.683Z,12.30
2022-11-12T08:20:20.689Z,12.39
2022-11-12T08:27:24.819Z,12.36
2022-11-12T08:34:28.726Z,12.35
2022-11-12T08:41:35.604Z,12.36
2022-11-12T08:48:40.344Z,12.45
2022-11-12T08:55:44.596Z,12.44
2022-11-12T09:02:51.490Z,12.56
2022-11-12T09:09:55.539Z,12.53
2022-11-12T09:16:59.339Z,12.55
2022-11-12T09:24:07.075Z,12.61
2022-11-12T09:31:12.121Z,12.67
2022-11-12T09:38:17.868Z,12.58
2022-11-12T09:45:32.659Z,12.67
2022-11-12T09:52:37.032Z,12.22
2022-11-12T09:59:45.081Z,12.68
2022-11-12T10:07:00.445Z,12.73
2022-11-12T10:14:18.760Z,12.84
2022-11-12T10:21:32.586Z,12.78
2022-11-12T10:28:48.960Z,12.94
2022-11-12T10:35:54.648Z,12.75
2022-11-12T10:43:04.827Z,13.02
2022-11-12T10:50:21.980Z,12.92
2022-11-12T10:57:29.076Z,13.03
2022-11-12T11:04:35.644Z,13.09
2022-11-12T11:11:53.626Z,13.17
2022-11-12T11:19:01.790Z,13.23
2022-11-12T11:26:23.676Z,13.30
2022-11-12T11:33:43.259Z,13.56
2022-11-12T11:40:59.353Z,13.67
2022-11-12T11:48:18.883Z,13.72
2022-11-12T11:55:45.807Z,13.87
2022-11-12T12:03:19.606Z,14.00
2022-11-12T12:10:53.344Z,14.14
2022-11-12T12:18:06.506Z,14.18
2022-11-12T12:25:17.405Z,14.29
2022-11-12T12:32:26.237Z,14.48
2022-11-12T12:39:47.648Z,14.48
2022-11-12T12:46:59.860Z,14.51
2022-11-12T12:54:04.935Z,14.65
2022-11-12T13:01:29.689Z,14.61
2022-11-12T13:08:39.928Z,14.67
2022-11-12T13:15:49.407Z,14.60
2022-11-12T13:22:56.467Z,14.68
2022-11-12T13:30:00.121Z,14.90
2022-11-12T13:37:08.569Z,14.73
2022-11-12T13:44:18.920Z,14.97
2022-11-12T13:51:32.069Z,14.79
2022-11-12T13:58:40.004Z,14.82
2022-11-12T14:05:52.303Z,14.72
2022-11-12T14:13:18.837Z,14.70
2022-11-12T14:20:30.696Z,14.63
2022-11-12T14:27:40.554Z,14.71
2022-11-12T14:34:44.563Z,14.91
2022-11-12T14:41:50.970Z,14.93
2022-11-12T14:49:02.000Z,14.78
2022-11-12T14:56:08.849Z,14.91
2022-11-12T15:03:20.670Z,14.85
2022-11-12T15:10:40.280Z,14.81
2022-11-12T15:17:44.425Z,14.88
2022-11-12T15:24:49.901Z,14.93
2022-11-12T15:31:58.947Z,14.44
2022-11-12T15:39:03.982Z,14.84
2022-11-12T15:46:08.195Z,14.93
2022-11-12T15:53:15.297Z,14.87
2022-11-12T16:00:23.073Z,14.05
2022-11-12T16:07:27.203Z,14.80
2022-11-12T16:14:34.415Z,15.01
2022-11-12T16:21:38.417Z,15.07
2022-11-12T16:28:43.853Z,15.29
2022-11-12T16:35:50.885Z,15.34
2022-11-12T16:42:55.562Z,15.47
2022-11-12T16:49:59.643Z,15.33
2022-11-12T16:57:06.308Z,15.26
2022-11-12T17:04:10.644Z,15.41
2022-11-12T17:11:14.856Z,15.11
2022-11-12T17:18:21.558Z,14.90
2022-11-12T17:25:25.396Z,14.73
2022-11-12T17:32:29.407Z,14.77
2022-11-12T17:39:36.151Z,14.75
2022-11-12T17:46:40.280Z,14.83
2022-11-12T17:53:45.008Z,14.93
2022-11-12T18:00:51.885Z,14.53
2022-11-12T18:07:56.053Z,14.95
2022-11-12T18:15:00.177Z,14.94
2022-11-12T18:22:07.796Z,14.73
2022-11-12T18:29:12.610Z,14.62
2022-11-12T18:36:19.738Z,14.38
2022-11-12T18:43:26.379Z,14.43
2022-11-12T18:50:30.568Z,14.60
2022-11-12T18:57:34.466Z,14.20
2022-11-12T19:04:45.170Z,14.19
2022-11-12T19:11:49.432Z,14.03
2022-11-12T19:18:56.020Z,13.91
2022-11-12T19:26:03.820Z,13.78
2022-11-12T19:33:07.715Z,13.82
2022-11-12T19:40:14.367Z,13.67
2022-11-12T19:47:20.870Z,13.60
2022-11-12T19:54:24.722Z,13.59
2022-11-12T20:01:28.796Z,13.46
2022-11-12T20:08:35.895Z,13.42
2022-11-12T20:15:41.260Z,13.72
2022-11-12T20:22:45.070Z,13.50
2022-11-12T20:29:51.892Z,13.39
2022-11-12T20:36:57.973Z,13.40
2022-11-12T20:44:03.423Z,13.41
2022-11-12T20:51:23.666Z,13.34
2022-11-12T20:58:29.927Z,13.36
2022-11-12T21:05:34.384Z,13.29
2022-11-12T21:12:40.943Z,13.18
2022-11-12T21:19:45.146Z,13.04
2022-11-12T21:26:51.037Z,12.92
2022-11-12T21:34:01.020Z,12.81
2022-11-12T21:41:07.730Z,12.86
2022-11-12T21:48:11.688Z,12.77
2022-11-12T21:55:18.228Z,12.73
2022-11-12T22:02:22.285Z,12.87
2022-11-12T22:09:26.279Z,12.88
2022-11-12T22:16:33.023Z,12.96
2022-11-12T22:23:38.545Z,13.06
2022-11-12T22:30:42.859Z,13.14
2022-11-12T22:37:49.493Z,13.25
2022-11-12T22:44:53.416Z,13.22
2022-11-12T22:51:57.516Z,13.52
2022-11-12T22:59:05.221Z,13.47
2022-11-12T23:06:10.047Z,13.51
2022-11-12T23:13:14.169Z,13.52
2022-11-12T23:20:21.228Z,13.46
2022-11-12T23:27:25.424Z,13.45
2022-11-12T23:34:29.455Z,13.41
2022-11-12T23:41:36.039Z,13.42
2022-11-12T23:48:40.689Z,13.29
2022-11-12T23:55:45.357Z,13.29
